createdAt,value
2019-03-20T00:00:21.398Z,16.23
2019-03-20T00:02:49.812Z,10.37
2019-03-20T00:05:18.257Z,17.70
2019-03-20T00:07:46.668Z,19.53
2019-03-20T00:10:15.381Z,12.50
2019-03-20T00:12:43.853Z,21.63
2019-03-20T00:15:13.930Z,11.40
2019-03-20T00:17:42.406Z,21.70
2019-03-20T00:20:12.534Z,26.60
2019-03-20T00:22:43.031Z,20.23
2019-03-20T00:25:12.055Z,16.27
2019-03-20T00:27:40.753Z,24.70
2019-03-20T00:30:16.225Z,17.07
2019-03-20T00:32:44.881Z,19.77
2019-03-20T00:35:13.853Z,14.80
2019-03-20T00:37:42.303Z,8.17
2019-03-20T00:40:16.207Z,13.50
2019-03-20T00:42:44.858Z,17.60
2019-03-20T00:45:16.390Z,14.77
2019-03-20T00:47:44.853Z,11.47
2019-03-20T00:50:16.363Z,15.60
2019-03-20T00:52:44.891Z,10.50
2019-03-20T00:55:15.318Z,15.93
2019-03-20T00:57:44.308Z,18.43
2019-03-20T01:00:26.802Z,22.30
2019-03-20T01:02:55.338Z,10.30
2019-03-20T01:05:23.993Z,10.40
2019-03-20T01:07:52.440Z,13.10
2019-03-20T01:10:25.426Z,10.40
2019-03-20T01:12:54.048Z,16.33
2019-03-20T01:15:22.636Z,17.57
2019-03-20T01:17:51.161Z,14.53
2019-03-20T01:20:25.845Z,11.37
2019-03-20T01:22:54.299Z,13.70
2019-03-20T01:25:22.722Z,11.17
2019-03-20T01:27:51.157Z,16.57
2019-03-20T01:30:36.551Z,14.73
2019-03-20T01:33:12.625Z,12.50
2019-03-20T01:35:41.597Z,14.33
2019-03-20T01:38:10.888Z,12.10
2019-03-20T01:40:40.483Z,12.50
2019-03-20T01:43:09.529Z,15.23
2019-03-20T01:45:38.475Z,7.27
2019-03-20T01:48:07.026Z,14.43
2019-03-20T01:50:35.433Z,14.00
2019-03-20T01:53:03.952Z,10.47
2019-03-20T01:55:32.380Z,16.60
2019-03-20T01:58:00.865Z,15.93
2019-03-20T02:00:29.446Z,12.10
2019-03-20T02:02:57.907Z,10.40
2019-03-20T02:05:35.050Z,11.20
2019-03-20T02:07:56.675Z,10.43
2019-03-20T02:10:25.107Z,16.10
2019-03-20T02:12:53.633Z,20.47
2019-03-20T02:15:22.234Z,7.67
2019-03-20T02:17:50.737Z,18.50
2019-03-20T02:20:20.415Z,15.87
2019-03-20T02:22:48.834Z,19.83
2019-03-20T02:25:17.329Z,9.67
2019-03-20T02:27:45.752Z,7.30
2019-03-20T02:30:16.402Z,12.80
2019-03-20T02:32:45.656Z,12.93
2019-03-20T02:35:14.318Z,9.73
2019-03-20T02:37:42.747Z,6.50
2019-03-20T02:40:13.977Z,11.43
2019-03-20T02:42:42.420Z,18.00
2019-03-20T02:45:13.461Z,14.33
2019-03-20T02:47:41.894Z,9.67
2019-03-20T02:50:11.752Z,7.20
2019-03-20T02:52:40.345Z,12.03
2019-03-20T02:55:09.996Z,10.73
2019-03-20T02:57:38.434Z,15.53
2019-03-20T03:00:10.144Z,16.80
2019-03-20T03:02:38.616Z,10.77
2019-03-20T03:05:08.421Z,9.87
2019-03-20T03:07:36.847Z,8.43
2019-03-20T03:10:11.024Z,21.93
2019-03-20T03:12:39.460Z,18.10
2019-03-20T03:15:10.221Z,15.73
2019-03-20T03:17:40.273Z,17.37
2019-03-20T03:20:14.992Z,15.10
2019-03-20T03:22:43.598Z,19.03
2019-03-20T03:25:13.557Z,9.87
2019-03-20T03:27:42.002Z,22.93
2019-03-20T03:30:15.988Z,14.10
2019-03-20T03:32:44.920Z,9.93
2019-03-20T03:35:18.109Z,14.20
2019-03-20T03:37:44.353Z,13.27
2019-03-20T03:40:17.355Z,10.37
2019-03-20T03:42:46.860Z,9.30
2019-03-20T03:45:17.126Z,14.93
2019-03-20T03:47:48.205Z,17.23
2019-03-20T03:50:16.627Z,7.20
2019-03-20T03:52:45.080Z,17.13
2019-03-20T03:55:15.872Z,19.83
2019-03-20T03:57:45.197Z,15.00
2019-03-20T04:00:19.640Z,15.80
2019-03-20T04:02:48.201Z,10.97
2019-03-20T04:05:16.661Z,10.13
2019-03-20T04:07:45.127Z,14.63
2019-03-20T04:10:15.411Z,26.03
2019-03-20T04:12:43.918Z,26.97
2019-03-20T04:15:16.773Z,27.00
2019-03-20T04:17:45.337Z,19.50
2019-03-20T04:20:20.854Z,18.60
2019-03-20T04:22:49.388Z,25.00
2019-03-20T04:25:17.884Z,24.30
2019-03-20T04:27:46.372Z,24.13
2019-03-20T04:30:18.032Z,29.40
2019-03-20T04:32:46.532Z,21.97
2019-03-20T04:35:15.005Z,23.40
2019-03-20T04:37:43.526Z,23.70
2019-03-20T04:40:14.343Z,34.43
2019-03-20T04:42:42.794Z,25.03
2019-03-20T04:45:17.323Z,27.80
2019-03-20T04:47:45.830Z,33.33
2019-03-20T04:50:15.521Z,39.57
2019-03-20T04:52:44.043Z,25.93
2019-03-20T04:55:13.209Z,28.47
2019-03-20T04:57:41.653Z,32.00
2019-03-20T05:00:17.673Z,34.20
2019-03-20T05:02:46.097Z,28.83
2019-03-20T05:05:14.561Z,29.60
2019-03-20T05:07:43.020Z,30.37
2019-03-20T05:10:19.508Z,32.33
2019-03-20T05:12:48.017Z,29.73
2019-03-20T05:15:16.467Z,29.50
2019-03-20T05:17:44.949Z,35.00
2019-03-20T05:20:20.644Z,31.70
2019-03-20T05:22:49.128Z,33.53
2019-03-20T05:25:17.834Z,33.10
2019-03-20T05:27:46.267Z,33.50
2019-03-20T05:30:16.050Z,36.03
2019-03-20T05:32:44.664Z,45.10
2019-03-20T05:35:13.166Z,34.73
2019-03-20T05:37:41.761Z,46.63
2019-03-20T05:40:12.252Z,42.47
2019-03-20T05:42:40.745Z,33.97
2019-03-20T05:45:14.239Z,35.67
2019-03-20T05:47:42.793Z,45.17
2019-03-20T05:50:13.201Z,43.67
2019-03-20T05:52:41.650Z,43.30
2019-03-20T05:55:10.165Z,37.67
2019-03-20T05:57:38.600Z,39.00
2019-03-20T06:00:21.410Z,32.67
2019-03-20T06:02:49.831Z,39.07
2019-03-20T06:05:18.272Z,46.37
2019-03-20T06:07:49.449Z,53.53
2019-03-20T06:10:18.709Z,47.10
2019-03-20T06:12:47.132Z,50.90
2019-03-20T06:15:15.586Z,41.33
2019-03-20T06:17:46.625Z,35.90
2019-03-20T06:20:14.967Z,43.17
2019-03-20T06:22:43.921Z,48.67
2019-03-20T06:25:14.489Z,45.57
2019-03-20T06:27:43.057Z,39.00
2019-03-20T06:30:14.285Z,45.20
2019-03-20T06:32:42.746Z,39.60
2019-03-20T06:35:11.668Z,37.60
2019-03-20T06:37:40.091Z,51.13
2019-03-20T06:40:11.437Z,39.03
2019-03-20T06:42:39.860Z,43.27
2019-03-20T06:45:11.985Z,43.57
2019-03-20T06:47:40.669Z,36.23
2019-03-20T06:50:16.658Z,42.57
2019-03-20T06:52:45.345Z,51.63
2019-03-20T06:55:14.042Z,38.93
2019-03-20T06:57:42.569Z,32.73
2019-03-20T07:00:38.017Z,38.97
2019-03-20T07:03:18.427Z,51.10
2019-03-20T07:06:04.674Z,41.33
2019-03-20T07:08:41.949Z,42.20
2019-03-20T07:11:13.087Z,42.50
2019-03-20T07:13:41.520Z,46.03
2019-03-20T07:16:10.161Z,44.60
2019-03-20T07:18:38.592Z,50.73
2019-03-20T07:21:07.033Z,39.60
2019-03-20T07:23:35.465Z,40.37
2019-03-20T07:26:04.268Z,38.50
2019-03-20T07:28:32.802Z,45.10
2019-03-20T07:31:01.337Z,43.67
2019-03-20T07:33:31.465Z,41.77
2019-03-20T07:36:00.003Z,42.63
2019-03-20T07:38:28.459Z,32.57
2019-03-20T07:40:56.881Z,42.40
2019-03-20T07:43:27.015Z,47.53
2019-03-20T07:45:58.441Z,33.87
2019-03-20T07:48:26.887Z,55.37
2019-03-20T07:50:55.342Z,48.13
2019-03-20T07:53:23.873Z,48.03
2019-03-20T07:55:52.377Z,40.30
2019-03-20T07:58:20.832Z,58.47
2019-03-20T08:00:49.262Z,44.47
2019-03-20T08:03:17.692Z,56.67
2019-03-20T08:05:46.126Z,45.83
2019-03-20T08:08:14.569Z,51.60
2019-03-20T08:10:43.135Z,53.87
2019-03-20T08:13:11.600Z,41.47
2019-03-20T08:15:40.047Z,49.43
2019-03-20T08:18:08.485Z,48.20
2019-03-20T08:20:37.038Z,51.57
2019-03-20T08:23:05.594Z,50.87
2019-03-20T08:25:34.016Z,50.90
2019-03-20T08:28:02.459Z,46.17
2019-03-20T08:30:31.808Z,47.43
2019-03-20T08:33:00.239Z,49.10
2019-03-20T08:35:28.673Z,50.60
2019-03-20T08:37:57.108Z,45.57
2019-03-20T08:40:25.542Z,43.37
2019-03-20T08:42:53.974Z,48.20
2019-03-20T08:45:22.412Z,54.47
2019-03-20T08:47:50.853Z,48.23
2019-03-20T08:50:23.577Z,45.73
2019-03-20T08:52:52.152Z,47.37
2019-03-20T08:55:21.524Z,48.37
2019-03-20T08:57:50.327Z,42.90
2019-03-20T09:00:20.838Z,31.10
2019-03-20T09:02:51.016Z,48.27
2019-03-20T09:05:19.984Z,49.60
2019-03-20T09:07:48.440Z,45.93
2019-03-20T09:10:24.074Z,43.60
2019-03-20T09:12:52.505Z,45.73
2019-03-20T09:15:21.509Z,43.00
2019-03-20T09:17:50.208Z,42.57
2019-03-20T09:20:20.754Z,47.63
2019-03-20T09:22:49.232Z,45.93
2019-03-20T09:25:21.189Z,48.37
2019-03-20T09:27:49.617Z,51.77
2019-03-20T09:30:21.911Z,38.43
2019-03-20T09:32:50.426Z,47.93
2019-03-20T09:35:18.863Z,42.80
2019-03-20T09:37:51.757Z,44.97
2019-03-20T09:40:23.676Z,42.27
2019-03-20T09:42:51.999Z,35.17
2019-03-20T09:45:21.657Z,29.83
2019-03-20T09:47:50.460Z,47.33
2019-03-20T09:50:25.824Z,37.80
2019-03-20T09:52:54.315Z,34.40
2019-03-20T09:55:22.753Z,42.40
2019-03-20T09:57:52.466Z,39.77
2019-03-20T10:00:32.289Z,34.73
2019-03-20T10:03:00.712Z,63.63
2019-03-20T10:05:32.169Z,46.13
2019-03-20T10:08:00.602Z,42.00
2019-03-20T10:10:31.049Z,40.37
2019-03-20T10:12:59.489Z,36.63
2019-03-20T10:15:31.857Z,43.83
2019-03-20T10:18:00.299Z,41.87
2019-03-20T10:20:28.739Z,45.20
2019-03-20T10:22:57.167Z,35.73
2019-03-20T10:25:25.624Z,43.63
2019-03-20T10:27:54.055Z,36.20
2019-03-20T10:30:29.883Z,39.40
2019-03-20T10:32:58.297Z,41.47
2019-03-20T10:35:26.751Z,50.20
2019-03-20T10:37:55.179Z,42.53
2019-03-20T10:40:25.721Z,53.07
2019-03-20T10:42:54.162Z,41.87
2019-03-20T10:45:22.744Z,42.70
2019-03-20T10:47:52.976Z,43.70
2019-03-20T10:50:23.166Z,38.70
2019-03-20T10:52:51.678Z,49.83
2019-03-20T10:55:20.109Z,44.90
2019-03-20T10:57:48.544Z,41.47
2019-03-20T11:00:26.746Z,56.37
2019-03-20T11:02:55.181Z,47.13
2019-03-20T11:05:23.695Z,51.23
2019-03-20T11:07:52.230Z,48.93
2019-03-20T11:10:22.697Z,50.97
2019-03-20T11:12:51.445Z,39.17
2019-03-20T11:15:21.081Z,49.47
2019-03-20T11:17:49.548Z,39.63
2019-03-20T11:20:20.583Z,43.40
2019-03-20T11:22:49.296Z,44.60
2019-03-20T11:25:24.389Z,63.07
2019-03-20T11:27:52.885Z,45.00
2019-03-20T11:30:26.095Z,47.83
2019-03-20T11:32:54.806Z,41.23
2019-03-20T11:35:23.254Z,47.17
2019-03-20T11:37:52.422Z,48.40
2019-03-20T11:40:34.577Z,43.50
2019-03-20T11:43:03.020Z,47.50
2019-03-20T11:45:31.449Z,44.43
2019-03-20T11:47:59.921Z,49.03
2019-03-20T11:50:33.950Z,46.10
2019-03-20T11:53:02.387Z,50.73
2019-03-20T11:55:32.351Z,43.53
2019-03-20T11:58:00.788Z,39.33
2019-03-20T12:00:29.322Z,45.20
2019-03-20T12:02:57.758Z,45.93
2019-03-20T12:05:26.266Z,45.80
2019-03-20T12:07:54.711Z,53.23
2019-03-20T12:10:25.657Z,51.90
2019-03-20T12:12:54.085Z,44.93
2019-03-20T12:15:22.529Z,46.60
2019-03-20T12:17:52.122Z,55.93
2019-03-20T12:20:25.349Z,39.97
2019-03-20T12:22:54.504Z,44.97
2019-03-20T12:25:28.857Z,51.13
2019-03-20T12:27:57.468Z,46.33
2019-03-20T12:30:33.866Z,58.43
2019-03-20T12:33:02.820Z,51.07
2019-03-20T12:35:40.013Z,49.23
2019-03-20T12:38:14.838Z,51.63
2019-03-20T12:40:38.796Z,61.60
2019-03-20T12:43:07.232Z,45.97
2019-03-20T12:45:37.879Z,55.60
2019-03-20T12:48:07.606Z,51.30
2019-03-20T12:50:36.071Z,57.27
2019-03-20T12:53:06.441Z,56.20
2019-03-20T12:55:34.907Z,66.77
2019-03-20T12:58:03.353Z,75.00
2019-03-20T13:00:32.175Z,54.43
2019-03-20T13:03:00.681Z,61.27
2019-03-20T13:05:29.116Z,50.57
2019-03-20T13:08:05.342Z,48.60
2019-03-20T13:10:28.365Z,59.03
2019-03-20T13:12:56.813Z,56.03
2019-03-20T13:15:30.424Z,50.93
2019-03-20T13:17:58.850Z,62.33
2019-03-20T13:20:27.839Z,57.57
2019-03-20T13:23:02.291Z,58.60
2019-03-20T13:25:31.130Z,59.20
2019-03-20T13:27:59.625Z,41.40
2019-03-20T13:30:52.674Z,56.47
2019-03-20T13:33:25.795Z,51.30
2019-03-20T13:35:51.285Z,59.70
2019-03-20T13:38:19.804Z,54.83
2019-03-20T13:40:48.255Z,63.13
2019-03-20T13:43:16.753Z,66.47
2019-03-20T13:45:45.204Z,63.80
2019-03-20T13:48:13.646Z,69.93
2019-03-20T13:50:42.096Z,66.10
2019-03-20T13:53:10.605Z,62.30
2019-03-20T13:55:39.043Z,61.53
2019-03-20T13:58:07.546Z,69.00
2019-03-20T14:00:36.265Z,74.70
2019-03-20T14:03:04.697Z,64.70
2019-03-20T14:05:33.150Z,67.73
2019-03-20T14:08:01.586Z,64.20
2019-03-20T14:10:31.651Z,73.33
2019-03-20T14:13:01.708Z,62.73
2019-03-20T14:15:30.132Z,60.50
2019-03-20T14:17:58.573Z,64.67
2019-03-20T14:20:28.555Z,65.13
2019-03-20T14:22:57.001Z,65.50
2019-03-20T14:25:25.985Z,62.03
2019-03-20T14:27:54.444Z,68.83
2019-03-20T14:30:25.485Z,68.40
2019-03-20T14:32:53.930Z,69.83
2019-03-20T14:35:22.365Z,61.70
2019-03-20T14:37:50.870Z,66.20
2019-03-20T14:40:36.118Z,68.30
2019-03-20T14:43:00.312Z,63.27
2019-03-20T14:45:28.933Z,71.57
2019-03-20T14:47:57.373Z,77.33
2019-03-20T14:50:28.880Z,68.00
2019-03-20T14:52:57.494Z,81.57
2019-03-20T14:55:26.367Z,70.57
2019-03-20T14:57:55.085Z,62.20
2019-03-20T15:00:33.058Z,78.43
2019-03-20T15:03:01.516Z,84.87
2019-03-20T15:05:29.965Z,72.33
2019-03-20T15:07:58.422Z,75.47
2019-03-20T15:10:28.045Z,69.40
2019-03-20T15:12:57.059Z,68.10
2019-03-20T15:15:28.574Z,114.30
2019-03-20T15:17:57.015Z,67.40
2019-03-20T15:20:25.447Z,76.70
2019-03-20T15:22:53.890Z,70.17
2019-03-20T15:25:22.329Z,75.83
2019-03-20T15:27:50.778Z,72.50
2019-03-20T15:30:23.921Z,78.33
2019-03-20T15:32:52.367Z,65.73
2019-03-20T15:35:20.982Z,73.97
2019-03-20T15:37:49.384Z,74.47
2019-03-20T15:40:25.997Z,59.10
2019-03-20T15:42:54.637Z,70.17
2019-03-20T15:45:23.066Z,66.40
2019-03-20T15:47:51.510Z,64.67
2019-03-20T15:50:25.256Z,85.77
2019-03-20T15:52:53.737Z,77.57
2019-03-20T15:55:30.146Z,71.37
2019-03-20T15:57:59.642Z,78.07
2019-03-20T16:00:28.245Z,73.37
2019-03-20T16:03:00.233Z,66.60
2019-03-20T16:05:28.672Z,75.53
2019-03-20T16:07:57.133Z,81.67
2019-03-20T16:10:25.573Z,66.00
2019-03-20T16:12:54.193Z,68.53
2019-03-20T16:15:23.813Z,64.30
2019-03-20T16:17:52.243Z,75.90
2019-03-20T16:20:20.866Z,67.93
2019-03-20T16:22:49.291Z,64.70
2019-03-20T16:25:22.670Z,70.73
2019-03-20T16:27:51.097Z,78.93
2019-03-20T16:30:30.034Z,70.83
2019-03-20T16:32:58.465Z,72.70
2019-03-20T16:35:26.973Z,70.70
2019-03-20T16:37:55.457Z,87.73
2019-03-20T16:40:26.940Z,76.63
2019-03-20T16:42:55.442Z,69.40
2019-03-20T16:45:26.938Z,76.53
2019-03-20T16:47:55.480Z,84.77
2019-03-20T16:50:23.983Z,100.20
2019-03-20T16:52:52.418Z,72.63
2019-03-20T16:55:21.161Z,72.70
2019-03-20T16:57:49.825Z,75.67
2019-03-20T17:00:24.324Z,82.53
2019-03-20T17:02:54.342Z,79.40
2019-03-20T17:05:23.468Z,78.50
2019-03-20T17:07:52.210Z,77.83
2019-03-20T17:10:23.750Z,84.23
2019-03-20T17:12:53.081Z,82.73
2019-03-20T17:15:26.894Z,92.17
2019-03-20T17:17:55.386Z,94.10
2019-03-20T17:20:23.827Z,78.77
2019-03-20T17:22:52.380Z,82.40
2019-03-20T17:25:20.828Z,78.50
2019-03-20T17:27:49.300Z,92.03
2019-03-20T17:30:26.268Z,87.33
2019-03-20T17:32:54.969Z,81.13
2019-03-20T17:35:23.408Z,81.73
2019-03-20T17:37:51.834Z,82.97
2019-03-20T17:40:24.729Z,77.67
2019-03-20T17:42:53.948Z,85.37
2019-03-20T17:45:24.866Z,74.93
2019-03-20T17:47:53.309Z,90.47
2019-03-20T17:50:30.166Z,81.00
2019-03-20T17:52:58.873Z,91.17
2019-03-20T17:55:27.148Z,80.43
2019-03-20T17:57:56.076Z,71.53
2019-03-20T18:00:43.093Z,79.90
2019-03-20T18:03:11.902Z,67.53
2019-03-20T18:05:40.778Z,74.20
2019-03-20T18:08:10.396Z,62.40
2019-03-20T18:10:38.876Z,78.23
2019-03-20T18:13:08.037Z,76.77
2019-03-20T18:15:36.741Z,71.87
2019-03-20T18:18:06.677Z,83.03
2019-03-20T18:20:35.314Z,71.73
2019-03-20T18:23:04.048Z,76.83
2019-03-20T18:25:34.198Z,97.87
2019-03-20T18:28:02.913Z,72.00
2019-03-20T18:30:33.395Z,81.10
2019-03-20T18:33:01.824Z,82.40
2019-03-20T18:35:30.281Z,87.83
2019-03-20T18:37:58.736Z,78.93
2019-03-20T18:40:28.208Z,81.23
2019-03-20T18:42:56.649Z,87.10
2019-03-20T18:45:26.468Z,76.83
2019-03-20T18:47:55.097Z,83.67
2019-03-20T18:50:24.452Z,84.67
2019-03-20T18:52:53.266Z,100.50
2019-03-20T18:55:22.129Z,78.70
2019-03-20T18:57:52.528Z,85.47
2019-03-20T19:00:26.227Z,84.50
2019-03-20T19:03:00.227Z,79.93
2019-03-20T19:05:34.406Z,91.60
2019-03-20T19:08:03.160Z,94.57
2019-03-20T19:10:31.837Z,77.90
2019-03-20T19:13:00.356Z,88.70
2019-03-20T19:15:28.898Z,79.63
2019-03-20T19:17:57.439Z,82.33
2019-03-20T19:20:26.012Z,93.00
2019-03-20T19:22:54.458Z,93.43
2019-03-20T19:25:22.882Z,92.23
2019-03-20T19:27:52.392Z,89.30
2019-03-20T19:30:22.465Z,87.40
2019-03-20T19:32:50.905Z,89.73
2019-03-20T19:35:20.094Z,83.07
2019-03-20T19:37:48.583Z,93.80
2019-03-20T19:40:22.061Z,89.60
2019-03-20T19:42:50.493Z,78.80
2019-03-20T19:45:19.355Z,91.23
2019-03-20T19:47:47.773Z,96.13
2019-03-20T19:50:22.640Z,101.17
2019-03-20T19:52:51.113Z,93.60
2019-03-20T19:55:19.541Z,96.87
2019-03-20T19:57:47.990Z,104.60
2019-03-20T20:00:26.948Z,90.17
2019-03-20T20:02:55.387Z,100.03
2019-03-20T20:05:23.838Z,108.17
2019-03-20T20:07:52.261Z,101.10
2019-03-20T20:10:21.458Z,87.60
2019-03-20T20:12:50.203Z,97.70
2019-03-20T20:15:23.745Z,99.33
2019-03-20T20:17:52.718Z,89.97
2019-03-20T20:20:32.999Z,90.03
2019-03-20T20:23:04.259Z,92.10
2019-03-20T20:25:31.783Z,87.00
2019-03-20T20:28:00.479Z,104.17
2019-03-20T20:30:28.915Z,95.47
2019-03-20T20:32:57.356Z,107.47
2019-03-20T20:35:25.821Z,97.90
2019-03-20T20:37:54.276Z,91.67
2019-03-20T20:40:26.857Z,101.77
2019-03-20T20:42:55.284Z,84.60
2019-03-20T20:45:23.731Z,101.40
2019-03-20T20:47:52.237Z,89.63
2019-03-20T20:50:20.681Z,98.50
2019-03-20T20:52:49.132Z,98.17
2019-03-20T20:55:21.357Z,92.90
2019-03-20T20:57:49.836Z,83.83
2019-03-20T21:00:26.399Z,93.90
2019-03-20T21:02:55.101Z,87.63
2019-03-20T21:05:24.400Z,89.63
2019-03-20T21:07:52.851Z,91.47
2019-03-20T21:10:23.396Z,92.50
2019-03-20T21:12:56.844Z,92.07
2019-03-20T21:15:34.121Z,92.70
2019-03-20T21:18:17.552Z,89.83
2019-03-20T21:20:48.622Z,89.57
2019-03-20T21:23:37.526Z,90.83
2019-03-20T21:26:11.199Z,79.50
2019-03-20T21:29:11.349Z,78.20
2019-03-20T21:31:45.767Z,79.97
2019-03-20T21:34:26.025Z,84.03
2019-03-20T21:37:31.089Z,78.50
2019-03-20T21:39:59.514Z,92.30
2019-03-20T21:42:33.732Z,84.13
2019-03-20T21:45:20.329Z,89.97
2019-03-20T21:47:48.772Z,85.67
2019-03-20T21:50:28.804Z,86.83
2019-03-20T21:52:57.253Z,82.20
2019-03-20T21:55:45.237Z,79.00
2019-03-20T21:58:16.799Z,76.10
2019-03-20T22:01:07.773Z,90.73
2019-03-20T22:03:36.248Z,94.83
2019-03-20T22:06:08.113Z,93.70
2019-03-20T22:08:36.582Z,80.37
2019-03-20T22:11:29.504Z,96.77
2019-03-20T22:14:01.024Z,100.07
2019-03-20T22:16:49.266Z,92.60
2019-03-20T22:19:26.780Z,90.13
2019-03-20T22:22:14.793Z,98.57
2019-03-20T22:25:07.324Z,93.77
2019-03-20T22:27:53.469Z,109.33
2019-03-20T22:30:21.905Z,92.03
2019-03-20T22:32:59.015Z,93.17
2019-03-20T22:35:36.453Z,104.10
2019-03-20T22:38:08.253Z,99.70
2019-03-20T22:40:58.809Z,89.13
2019-03-20T22:43:33.176Z,96.00
2019-03-20T22:46:30.061Z,88.80
2019-03-20T22:49:22.770Z,93.93
2019-03-20T22:52:14.866Z,98.10
2019-03-20T22:54:48.812Z,91.97
2019-03-20T22:57:20.326Z,93.20
2019-03-20T22:59:48.768Z,102.43
2019-03-20T23:02:20.565Z,96.37
2019-03-20T23:04:56.107Z,106.10
2019-03-20T23:07:24.549Z,105.17
2019-03-20T23:09:53.070Z,109.33
2019-03-20T23:12:21.512Z,104.07
2019-03-20T23:14:50.025Z,108.77
2019-03-20T23:17:18.633Z,109.73
2019-03-20T23:19:47.916Z,113.13
2019-03-20T23:22:16.500Z,115.83
2019-03-20T23:24:45.785Z,114.73
2019-03-20T23:27:20.589Z,108.93
2019-03-20T23:29:49.033Z,116.37
2019-03-20T23:32:17.478Z,125.97
2019-03-20T23:34:45.993Z,117.33
2019-03-20T23:37:14.474Z,137.77
2019-03-20T23:39:42.988Z,132.90
2019-03-20T23:42:11.501Z,129.43
2019-03-20T23:44:39.968Z,144.57
2019-03-20T23:47:08.398Z,132.00
2019-03-20T23:49:36.849Z,145.00
2019-03-20T23:52:05.285Z,137.57
2019-03-20T23:54:36.814Z,131.30
2019-03-20T23:57:05.252Z,129.50
2019-03-20T23:59:33.695Z,151.00
